Waxhaw, Mississippi
Current Conditions -  °F | °C
As of 1:15 AM on Thursday 18 Dec 2014 (Local Time) from KRNV Reporting Station
Overcast Overcast  
Wind Chill: 36°   Ceiling: 8000
Heat Index: 42°   Visibility: 10mi
Dew Point: 38°   Wind: 8mph
Humidity: 88%   Direction: 10°N
Pressure: 30.26"   Gusts: NA
Location:  33.9429°N, 90.9264°W
Report Text: KRNV 180715Z AUTO 01007KT 10SM OVC080 05/04 A3026 RMK AO2 T00530035
Loading
Personal Weather Stations






























Interactive Weather Map New forecast layout! Learn more

10-Day Weather Forecast

Advertisements
Track Severe Weather on mobile